createdAt,value
2022-12-25T00:01:58.840Z,18.28
2022-12-25T00:04:25.160Z,18.18
2022-12-25T00:06:54.470Z,18.10
2022-12-25T00:09:20.793Z,18.03
2022-12-25T00:11:47.093Z,17.95
2022-12-25T00:14:13.394Z,17.89
2022-12-25T00:16:39.699Z,17.84
2022-12-25T00:19:06.172Z,17.79
2022-12-25T00:24:16.612Z,17.70
2022-12-25T00:26:42.868Z,17.65
2022-12-25T00:29:09.300Z,17.61
2022-12-25T00:31:35.935Z,17.55
2022-12-25T00:34:02.267Z,17.50
2022-12-25T00:36:28.530Z,17.45
2022-12-25T00:38:54.781Z,17.41
2022-12-25T00:41:21.043Z,17.36
2022-12-25T00:43:47.298Z,17.33
2022-12-25T00:46:13.812Z,17.29
2022-12-25T00:48:40.257Z,17.25
2022-12-25T00:51:06.668Z,17.22
2022-12-25T00:53:33.183Z,17.17
2022-12-25T00:55:59.471Z,17.13
2022-12-25T00:58:25.742Z,17.10
2022-12-25T01:00:52.133Z,17.07
2022-12-25T01:03:18.586Z,17.04
2022-12-25T01:05:44.928Z,17.01
2022-12-25T01:08:11.258Z,16.97
2022-12-25T01:10:37.524Z,16.93
2022-12-25T01:13:03.819Z,16.89
2022-12-25T01:15:30.099Z,16.87
2022-12-25T01:17:56.405Z,16.84
2022-12-25T01:20:22.840Z,16.82
2022-12-25T01:22:49.188Z,16.79
2022-12-25T01:25:15.503Z,16.75
2022-12-25T01:27:41.853Z,16.72
2022-12-25T01:30:08.139Z,16.68
2022-12-25T01:32:34.478Z,16.66
2022-12-25T01:35:00.809Z,16.62
2022-12-25T01:37:27.154Z,16.60
2022-12-25T01:39:53.425Z,16.57
2022-12-25T01:42:19.717Z,16.54
2022-12-25T01:44:49.047Z,16.51
2022-12-25T01:47:15.377Z,16.49
2022-12-25T01:49:41.700Z,16.47
2022-12-25T01:52:07.973Z,16.44
2022-12-25T01:54:34.305Z,16.41
2022-12-25T01:57:00.612Z,16.39
2022-12-25T01:59:26.944Z,16.35
2022-12-25T02:01:53.384Z,16.33
2022-12-25T02:04:19.983Z,16.30
2022-12-25T02:06:46.771Z,16.26
2022-12-25T02:09:13.140Z,16.24
2022-12-25T02:11:39.659Z,16.22
2022-12-25T02:14:06.051Z,16.20
2022-12-25T02:16:32.363Z,16.18
2022-12-25T02:18:58.603Z,16.15
2022-12-25T02:21:24.864Z,16.14
2022-12-25T02:23:51.139Z,16.12
2022-12-25T02:26:17.448Z,16.09
2022-12-25T02:28:45.995Z,16.08
2022-12-25T02:31:12.509Z,16.06
2022-12-25T02:33:38.859Z,16.05
2022-12-25T02:36:05.116Z,16.05
2022-12-25T02:38:31.403Z,16.08
2022-12-25T02:40:57.703Z,16.09
2022-12-25T02:43:25.893Z,16.08
2022-12-25T02:45:58.621Z,16.05
2022-12-25T02:48:31.437Z,16.02
2022-12-25T02:51:13.487Z,16.00
2022-12-25T02:56:42.760Z,15.95
2022-12-25T02:59:09.157Z,15.96
2022-12-25T03:01:35.729Z,15.94
2022-12-25T03:04:02.189Z,15.92
2022-12-25T03:06:28.617Z,15.91
2022-12-25T03:08:54.974Z,15.90
2022-12-25T03:11:21.461Z,15.88
2022-12-25T03:13:47.985Z,15.87
2022-12-25T03:16:14.401Z,15.85
2022-12-25T03:18:40.952Z,15.85
2022-12-25T03:21:07.318Z,15.84
2022-12-25T03:23:33.630Z,15.82
2022-12-25T03:26:00.152Z,15.81
2022-12-25T03:28:26.529Z,15.81
2022-12-25T03:30:53.074Z,15.79
2022-12-25T03:33:44.004Z,15.81
2022-12-25T03:36:06.359Z,15.79
2022-12-25T03:38:33.213Z,15.79
2022-12-25T03:40:59.678Z,15.79
2022-12-25T03:43:26.025Z,15.79
2022-12-25T03:45:52.381Z,15.79
2022-12-25T03:48:18.795Z,15.79
2022-12-25T03:50:45.256Z,15.77
2022-12-25T03:53:21.254Z,15.77
2022-12-25T03:55:47.687Z,15.75
2022-12-25T03:58:13.972Z,15.75
2022-12-25T04:00:40.242Z,15.73
2022-12-25T04:03:06.689Z,15.72
2022-12-25T04:05:32.980Z,15.71
2022-12-25T04:07:59.232Z,15.70
2022-12-25T04:10:25.595Z,15.69
2022-12-25T04:12:51.867Z,15.68
2022-12-25T04:15:18.145Z,15.67
2022-12-25T04:17:44.487Z,15.67
2022-12-25T04:20:10.832Z,15.65
2022-12-25T04:22:37.168Z,15.64
2022-12-25T04:25:03.410Z,15.63
2022-12-25T04:27:29.662Z,15.63
2022-12-25T04:29:55.940Z,15.63
2022-12-25T04:32:22.270Z,15.62
2022-12-25T04:34:48.576Z,15.62
2022-12-25T04:37:15.069Z,15.63
2022-12-25T04:39:41.612Z,15.69
2022-12-25T04:42:07.972Z,15.79
2022-12-25T04:44:34.320Z,15.94
2022-12-25T04:47:03.515Z,16.16
2022-12-25T04:49:32.200Z,16.41
2022-12-25T04:51:58.516Z,16.62
2022-12-25T04:54:33.876Z,16.81
2022-12-25T04:57:00.174Z,17.03
2022-12-25T04:59:26.527Z,17.20
2022-12-25T05:01:52.955Z,17.40
2022-12-25T05:04:19.341Z,17.56
2022-12-25T05:06:45.603Z,17.71
2022-12-25T05:09:11.900Z,17.87
2022-12-25T05:11:38.145Z,18.02
2022-12-25T05:14:04.486Z,18.16
2022-12-25T05:16:30.999Z,18.32
2022-12-25T05:18:57.444Z,18.47
2022-12-25T05:21:23.915Z,18.62
2022-12-25T05:23:50.167Z,18.77
2022-12-25T05:26:16.439Z,18.95
2022-12-25T05:28:42.658Z,19.12
2022-12-25T05:31:08.941Z,19.30
2022-12-25T05:33:35.960Z,19.45
2022-12-25T05:36:02.242Z,19.61
2022-12-25T05:38:28.516Z,19.79
2022-12-25T05:40:54.802Z,19.92
2022-12-25T05:43:21.026Z,20.03
2022-12-25T05:45:47.319Z,20.13
2022-12-25T05:48:13.642Z,20.15
2022-12-25T05:50:39.873Z,20.15
2022-12-25T05:53:08.391Z,20.14
2022-12-25T05:55:35.246Z,20.10
2022-12-25T05:58:01.521Z,20.04
2022-12-25T06:00:27.833Z,19.98
2022-12-25T06:02:54.163Z,19.93
2022-12-25T06:05:20.490Z,19.90
2022-12-25T06:07:46.729Z,19.86
2022-12-25T06:10:13.054Z,19.79
2022-12-25T06:12:39.365Z,19.73
2022-12-25T06:15:05.638Z,19.64
2022-12-25T06:17:35.013Z,19.57
2022-12-25T06:20:01.298Z,19.49
2022-12-25T06:22:27.518Z,19.41
2022-12-25T06:24:53.822Z,19.33
2022-12-25T06:27:20.043Z,19.26
2022-12-25T06:29:46.325Z,19.18
2022-12-25T06:32:12.554Z,19.09
2022-12-25T06:34:38.836Z,19.02
2022-12-25T06:37:05.090Z,18.94
2022-12-25T06:39:31.349Z,18.86
2022-12-25T06:41:57.705Z,18.78
2022-12-25T06:44:23.969Z,18.72
2022-12-25T06:46:50.267Z,18.67
2022-12-25T06:49:16.539Z,18.59
2022-12-25T06:51:43.295Z,18.53
2022-12-25T06:54:09.562Z,18.48
2022-12-25T06:56:35.826Z,18.42
2022-12-25T06:59:02.120Z,18.34
2022-12-25T07:01:32.534Z,18.30
2022-12-25T07:03:58.905Z,18.28
2022-12-25T07:06:25.179Z,18.31
2022-12-25T07:08:51.492Z,18.39
2022-12-25T07:11:17.754Z,18.56
2022-12-25T07:13:44.251Z,18.78
2022-12-25T07:16:13.689Z,19.03
2022-12-25T07:18:43.029Z,19.32
2022-12-25T07:21:09.273Z,19.57
2022-12-25T07:23:35.556Z,19.75
2022-12-25T07:26:01.807Z,19.97
2022-12-25T07:28:28.058Z,20.17
2022-12-25T07:30:54.328Z,20.31
2022-12-25T07:33:20.711Z,20.38
2022-12-25T07:35:47.130Z,20.44
2022-12-25T07:38:13.422Z,20.46
2022-12-25T07:40:39.698Z,20.45
2022-12-25T07:43:05.959Z,20.40
2022-12-25T07:45:32.603Z,20.32
2022-12-25T07:48:04.863Z,20.23
2022-12-25T07:50:31.975Z,20.13
2022-12-25T07:53:05.047Z,20.04
2022-12-25T07:55:31.410Z,19.95
2022-12-25T07:57:57.659Z,19.88
2022-12-25T08:00:23.995Z,19.85
2022-12-25T08:02:50.614Z,19.80
2022-12-25T08:05:16.992Z,19.75
2022-12-25T08:07:43.364Z,19.69
2022-12-25T08:10:09.737Z,19.63
2022-12-25T08:12:36.078Z,19.56
2022-12-25T08:15:02.306Z,19.50
2022-12-25T08:17:28.851Z,19.46
2022-12-25T08:19:55.135Z,19.42
2022-12-25T08:22:21.405Z,19.38
2022-12-25T08:24:47.692Z,19.37
2022-12-25T08:27:13.952Z,19.39
2022-12-25T08:29:40.345Z,19.41
2022-12-25T08:32:06.602Z,19.43
2022-12-25T08:34:33.053Z,19.44
2022-12-25T08:36:59.384Z,19.45
2022-12-25T08:39:25.659Z,19.44
2022-12-25T08:41:51.978Z,19.44
2022-12-25T08:44:18.263Z,19.45
2022-12-25T08:46:44.696Z,19.46
2022-12-25T08:49:11.142Z,19.45
2022-12-25T08:51:37.439Z,19.43
2022-12-25T08:54:03.893Z,19.42
2022-12-25T08:56:30.181Z,19.41
2022-12-25T08:58:56.455Z,19.40
2022-12-25T09:01:22.822Z,19.40
2022-12-25T09:03:49.190Z,19.40
2022-12-25T09:06:15.519Z,19.38
2022-12-25T09:08:48.161Z,19.37
2022-12-25T09:11:15.265Z,19.35
2022-12-25T09:13:41.560Z,19.34
2022-12-25T09:16:07.905Z,19.33
2022-12-25T09:18:34.375Z,19.32
2022-12-25T09:21:01.655Z,19.30
2022-12-25T09:23:28.005Z,19.30
2022-12-25T09:25:54.289Z,19.29
2022-12-25T09:28:21.069Z,19.28
2022-12-25T09:30:47.394Z,19.28
2022-12-25T09:33:13.714Z,19.31
2022-12-25T09:35:40.024Z,19.31
2022-12-25T09:38:06.397Z,19.31
2022-12-25T09:40:32.710Z,19.28
2022-12-25T09:42:59.036Z,19.27
2022-12-25T09:45:25.374Z,19.25
2022-12-25T09:47:51.683Z,19.22
2022-12-25T09:50:17.959Z,19.20
2022-12-25T09:52:44.225Z,19.18
2022-12-25T09:55:14.797Z,19.17
2022-12-25T09:57:44.361Z,19.15
2022-12-25T10:00:10.587Z,19.14
2022-12-25T10:02:37.220Z,19.13
2022-12-25T10:05:03.900Z,19.12
2022-12-25T10:07:30.370Z,19.12
2022-12-25T10:09:56.878Z,19.12
2022-12-25T10:12:23.195Z,19.12
2022-12-25T10:14:49.451Z,19.12
2022-12-25T10:17:15.775Z,19.13
2022-12-25T10:19:42.009Z,19.13
2022-12-25T10:22:08.289Z,19.13
2022-12-25T10:24:34.636Z,19.13
2022-12-25T10:27:01.046Z,19.13
2022-12-25T10:29:27.360Z,19.14
2022-12-25T10:31:53.649Z,19.14
2022-12-25T10:34:19.936Z,19.14
2022-12-25T10:36:46.192Z,19.13
2022-12-25T10:39:12.803Z,19.12
2022-12-25T10:41:39.238Z,19.12
2022-12-25T10:44:05.596Z,19.11
2022-12-25T10:46:32.008Z,19.10
2022-12-25T10:48:58.397Z,19.09
2022-12-25T10:51:24.676Z,19.09
2022-12-25T10:53:50.948Z,19.08
2022-12-25T10:56:17.473Z,19.08
2022-12-25T10:58:43.918Z,19.08
2022-12-25T11:01:10.332Z,19.07
2022-12-25T11:03:36.703Z,19.06
2022-12-25T11:06:03.092Z,19.01
2022-12-25T11:08:29.432Z,19.05
2022-12-25T11:10:55.820Z,19.05
2022-12-25T11:13:22.135Z,19.06
2022-12-25T11:15:48.512Z,19.04
2022-12-25T11:18:14.832Z,19.02
2022-12-25T11:20:47.042Z,19.02
2022-12-25T11:23:14.149Z,18.99
2022-12-25T11:25:40.455Z,19.00
2022-12-25T11:28:06.719Z,18.99
2022-12-25T11:30:32.985Z,18.98
2022-12-25T11:32:59.330Z,18.97
2022-12-25T11:35:25.628Z,18.98
2022-12-25T11:37:51.860Z,18.96
2022-12-25T11:40:18.195Z,18.96
2022-12-25T11:42:44.465Z,18.95
2022-12-25T11:45:10.737Z,18.94
2022-12-25T11:47:37.122Z,18.92
2022-12-25T11:50:04.500Z,18.92
2022-12-25T11:52:30.787Z,18.92
2022-12-25T11:54:57.100Z,18.91
2022-12-25T11:57:23.360Z,18.90
2022-12-25T11:59:49.798Z,18.91
2022-12-25T12:02:16.202Z,18.90
2022-12-25T12:04:43.379Z,18.92
2022-12-25T12:07:09.791Z,18.91
2022-12-25T12:09:36.018Z,18.91
2022-12-25T12:12:02.271Z,18.91
2022-12-25T12:14:28.517Z,18.91
2022-12-25T12:16:54.857Z,18.91
2022-12-25T12:19:21.165Z,18.91
2022-12-25T12:21:47.466Z,18.92
2022-12-25T12:24:13.807Z,18.91
2022-12-25T12:26:40.046Z,18.91
2022-12-25T12:29:06.350Z,18.92
2022-12-25T12:31:32.619Z,18.91
2022-12-25T12:33:58.909Z,18.92
2022-12-25T12:36:35.230Z,18.90
2022-12-25T12:39:02.223Z,18.89
2022-12-25T12:41:28.490Z,18.88
2022-12-25T12:43:54.767Z,18.87
2022-12-25T12:46:26.214Z,18.88
2022-12-25T12:48:56.631Z,18.88
2022-12-25T12:51:24.062Z,18.88
2022-12-25T12:53:50.358Z,18.88
2022-12-25T12:56:16.743Z,18.75
2022-12-25T12:58:43.084Z,18.87
2022-12-25T13:01:09.371Z,18.87
2022-12-25T13:03:35.652Z,18.86
2022-12-25T13:06:01.914Z,18.84
2022-12-25T13:08:28.166Z,18.84
2022-12-25T13:10:54.518Z,18.82
2022-12-25T13:13:20.813Z,18.83
2022-12-25T13:15:47.051Z,18.82
2022-12-25T13:18:13.392Z,18.80
2022-12-25T13:20:39.677Z,18.80
2022-12-25T13:23:05.935Z,18.78
2022-12-25T13:25:32.229Z,18.78
2022-12-25T13:27:58.528Z,18.77
2022-12-25T13:30:24.819Z,18.76
2022-12-25T13:32:51.174Z,18.75
2022-12-25T13:35:17.591Z,18.74
2022-12-25T13:37:43.910Z,18.73
2022-12-25T13:40:10.168Z,18.73
2022-12-25T13:42:36.593Z,18.71
2022-12-25T13:45:02.872Z,18.70
2022-12-25T13:47:29.113Z,18.69
2022-12-25T13:49:55.363Z,18.69
2022-12-25T13:52:21.626Z,18.67
2022-12-25T13:54:49.999Z,18.66
2022-12-25T13:57:16.331Z,18.67
2022-12-25T13:59:42.825Z,18.65
2022-12-25T14:02:09.289Z,18.64
2022-12-25T14:04:35.693Z,18.65
2022-12-25T14:07:01.960Z,18.65
2022-12-25T14:09:28.210Z,18.65
2022-12-25T14:11:54.596Z,18.65
2022-12-25T14:14:20.961Z,18.64
2022-12-25T14:16:47.744Z,18.63
2022-12-25T14:19:14.059Z,18.64
2022-12-25T14:21:40.419Z,18.63
2022-12-25T14:24:06.707Z,18.62
2022-12-25T14:26:32.982Z,18.62
2022-12-25T14:28:59.355Z,18.59
2022-12-25T14:31:25.842Z,18.61
2022-12-25T14:33:52.313Z,18.59
2022-12-25T14:36:18.696Z,18.58
2022-12-25T14:38:45.037Z,18.58
2022-12-25T14:41:11.321Z,18.58
2022-12-25T14:43:37.873Z,18.56
2022-12-25T14:46:05.336Z,18.55
2022-12-25T14:48:31.674Z,18.55
2022-12-25T14:50:57.949Z,18.53
2022-12-25T14:53:24.278Z,18.52
2022-12-25T14:55:50.574Z,18.51
2022-12-25T14:58:16.781Z,18.50
2022-12-25T15:00:43.047Z,18.49
2022-12-25T15:03:09.653Z,18.49
2022-12-25T15:05:36.055Z,18.48
2022-12-25T15:08:02.322Z,18.46
2022-12-25T15:10:58.864Z,18.46
2022-12-25T15:13:15.011Z,18.45
2022-12-25T15:15:41.325Z,18.44
2022-12-25T15:18:07.605Z,18.43
2022-12-25T15:20:33.950Z,18.42
2022-12-25T15:23:19.343Z,18.40
2022-12-25T15:25:46.437Z,18.40
2022-12-25T15:28:13.142Z,18.39
2022-12-25T15:30:39.722Z,18.38
2022-12-25T15:33:06.065Z,18.37
2022-12-25T15:35:32.317Z,18.36
2022-12-25T15:37:59.024Z,18.36
2022-12-25T15:40:25.304Z,18.37
2022-12-25T15:42:51.589Z,18.37
2022-12-25T15:45:17.860Z,18.37
2022-12-25T15:47:44.159Z,18.37
2022-12-25T15:50:10.444Z,18.37
2022-12-25T15:52:36.842Z,18.37
2022-12-25T15:55:03.067Z,18.37
2022-12-25T15:57:29.421Z,18.38
2022-12-25T15:59:55.688Z,18.38
2022-12-25T16:02:22.122Z,18.35
2022-12-25T16:04:48.530Z,18.36
2022-12-25T16:07:14.763Z,18.36
2022-12-25T16:09:41.073Z,18.35
2022-12-25T16:12:07.371Z,18.35
2022-12-25T16:14:33.664Z,18.36
2022-12-25T16:16:59.924Z,18.39
2022-12-25T16:19:26.298Z,18.41
2022-12-25T16:21:52.517Z,18.44
2022-12-25T16:24:18.748Z,18.45
2022-12-25T16:26:45.011Z,18.48
2022-12-25T16:29:11.259Z,18.50
2022-12-25T16:31:37.789Z,18.51
2022-12-25T16:34:04.155Z,18.53
2022-12-25T16:36:30.449Z,18.55
2022-12-25T16:38:56.689Z,18.59
2022-12-25T16:41:22.998Z,18.59
2022-12-25T16:43:49.315Z,18.61
2022-12-25T16:46:15.706Z,18.63
2022-12-25T16:48:41.958Z,18.63
2022-12-25T16:51:08.239Z,18.65
2022-12-25T16:53:34.577Z,18.67
2022-12-25T16:56:00.880Z,18.69
2022-12-25T16:58:27.207Z,18.70
2022-12-25T17:00:53.686Z,18.72
2022-12-25T17:03:20.031Z,18.72
2022-12-25T17:05:46.515Z,18.72
2022-12-25T17:08:12.849Z,18.74
2022-12-25T17:10:39.278Z,18.75
2022-12-25T17:13:08.881Z,18.77
2022-12-25T17:15:35.403Z,18.78
2022-12-25T17:18:02.241Z,18.80
2022-12-25T17:20:28.806Z,18.82
2022-12-25T17:22:55.112Z,18.84
2022-12-25T17:25:21.382Z,18.86
2022-12-25T17:27:47.703Z,18.86
2022-12-25T17:30:14.503Z,18.89
2022-12-25T17:32:40.848Z,18.89
2022-12-25T17:35:07.176Z,18.91
2022-12-25T17:37:33.451Z,18.91
2022-12-25T17:40:00.403Z,18.93
2022-12-25T17:42:27.157Z,18.93
2022-12-25T17:44:54.043Z,18.94
2022-12-25T17:47:20.735Z,18.95
2022-12-25T17:49:47.363Z,18.95
2022-12-25T17:52:13.689Z,18.96
2022-12-25T17:54:40.321Z,18.96
2022-12-25T17:57:06.948Z,18.96
2022-12-25T17:59:33.331Z,18.95
2022-12-25T18:02:00.171Z,18.95
2022-12-25T18:04:26.685Z,18.94
2022-12-25T18:06:53.067Z,18.95
2022-12-25T18:09:19.585Z,18.95
2022-12-25T18:11:46.434Z,18.99
2022-12-25T18:14:12.894Z,19.07
2022-12-25T18:16:39.711Z,19.20
2022-12-25T18:19:06.030Z,19.37
2022-12-25T18:21:33.628Z,19.56
2022-12-25T18:23:59.915Z,19.71
2022-12-25T18:26:26.234Z,19.87
2022-12-25T18:28:52.630Z,20.03
2022-12-25T18:31:18.952Z,20.22
2022-12-25T18:33:47.435Z,20.39
2022-12-25T18:36:13.866Z,20.52
2022-12-25T18:38:40.217Z,20.65
2022-12-25T18:41:06.619Z,20.80
2022-12-25T18:43:53.664Z,20.93
2022-12-25T18:46:19.540Z,21.06
2022-12-25T18:48:45.961Z,21.16
2022-12-25T18:51:12.371Z,21.21
2022-12-25T18:53:38.865Z,21.24
2022-12-25T18:56:05.743Z,21.27
2022-12-25T18:58:32.066Z,21.28
2022-12-25T19:00:58.429Z,21.29
2022-12-25T19:03:24.905Z,21.27
2022-12-25T19:05:51.934Z,21.24
2022-12-25T19:08:18.295Z,21.21
2022-12-25T19:10:45.055Z,21.18
2022-12-25T19:13:11.822Z,21.14
2022-12-25T19:15:38.663Z,21.10
2022-12-25T19:18:04.982Z,21.07
2022-12-25T19:20:31.252Z,21.02
2022-12-25T19:22:57.538Z,20.98
2022-12-25T19:25:24.221Z,20.94
2022-12-25T19:27:51.217Z,20.91
2022-12-25T19:30:18.164Z,20.88
2022-12-25T19:32:44.467Z,20.85
2022-12-25T19:35:10.783Z,20.80
2022-12-25T19:37:37.056Z,20.74
2022-12-25T19:40:03.489Z,20.70
2022-12-25T19:42:29.801Z,20.66
2022-12-25T19:44:56.080Z,20.62
2022-12-25T19:47:23.032Z,20.58
2022-12-25T19:49:53.012Z,20.54
2022-12-25T19:52:19.873Z,20.50
2022-12-25T19:54:46.367Z,20.45
2022-12-25T19:57:13.143Z,20.40
2022-12-25T19:59:39.446Z,20.36
2022-12-25T20:02:05.921Z,20.32
2022-12-25T20:04:32.373Z,20.28
2022-12-25T20:06:58.777Z,20.26
2022-12-25T20:09:25.491Z,20.22
2022-12-25T20:11:51.739Z,20.20
2022-12-25T20:14:18.051Z,20.17
2022-12-25T20:16:44.518Z,20.14
2022-12-25T20:19:11.017Z,20.13
2022-12-25T20:21:37.589Z,20.12
2022-12-25T20:24:04.303Z,20.11
2022-12-25T20:26:30.608Z,20.08
2022-12-25T20:28:56.948Z,20.07
2022-12-25T20:31:23.325Z,20.05
2022-12-25T20:33:49.669Z,20.04
2022-12-25T20:36:15.982Z,20.02
2022-12-25T20:38:42.271Z,20.02
2022-12-25T20:41:29.876Z,20.00
2022-12-25T20:43:56.674Z,19.97
2022-12-25T20:46:23.145Z,19.95
2022-12-25T20:48:49.485Z,19.95
2022-12-25T20:51:15.767Z,19.91
2022-12-25T20:53:41.996Z,19.90
2022-12-25T20:56:08.356Z,19.88
2022-12-25T20:58:34.680Z,19.88
2022-12-25T21:01:01.039Z,19.85
2022-12-25T21:03:27.444Z,19.82
2022-12-25T21:05:53.744Z,19.81
2022-12-25T21:08:20.062Z,19.80
2022-12-25T21:10:46.311Z,19.79
2022-12-25T21:13:12.584Z,19.78
2022-12-25T21:15:38.893Z,19.76
2022-12-25T21:18:05.162Z,19.75
2022-12-25T21:20:31.519Z,19.73
2022-12-25T21:22:57.745Z,19.71
2022-12-25T21:25:24.091Z,19.70
2022-12-25T21:27:50.358Z,19.69
2022-12-25T21:30:16.670Z,19.68
2022-12-25T21:32:42.924Z,19.67
2022-12-25T21:35:09.406Z,19.66
2022-12-25T21:37:35.739Z,19.64
2022-12-25T21:40:02.006Z,19.64
2022-12-25T21:42:28.253Z,19.62
2022-12-25T21:44:54.610Z,19.62
2022-12-25T21:47:20.896Z,19.61
2022-12-25T21:49:47.313Z,19.60
2022-12-25T21:52:13.595Z,19.60
2022-12-25T21:54:39.875Z,19.59
2022-12-25T21:57:06.241Z,19.59
2022-12-25T21:59:32.522Z,19.58
2022-12-25T22:01:58.949Z,19.59
2022-12-25T22:04:25.283Z,19.59
2022-12-25T22:06:51.527Z,19.58
2022-12-25T22:09:17.806Z,19.57
2022-12-25T22:11:44.070Z,19.55
2022-12-25T22:14:10.333Z,19.55
2022-12-25T22:16:36.697Z,19.54
2022-12-25T22:19:03.126Z,19.54
2022-12-25T22:21:29.402Z,19.52
2022-12-25T22:23:55.681Z,19.52
2022-12-25T22:26:22.093Z,19.51
2022-12-25T22:28:48.356Z,19.49
2022-12-25T22:31:14.714Z,19.49
2022-12-25T22:33:41.026Z,19.49
2022-12-25T22:36:07.355Z,19.49
2022-12-25T22:38:33.656Z,19.47
2022-12-25T22:40:59.918Z,19.46
2022-12-25T22:43:50.630Z,19.46
2022-12-25T22:46:12.902Z,19.44
2022-12-25T22:48:39.169Z,19.44
2022-12-25T22:51:05.451Z,19.42
2022-12-25T22:53:31.906Z,19.42
2022-12-25T22:55:58.213Z,19.40
2022-12-25T22:58:24.512Z,19.34
2022-12-25T23:00:50.904Z,19.28
2022-12-25T23:03:17.222Z,19.19
2022-12-25T23:05:43.571Z,19.13
2022-12-25T23:08:09.810Z,19.07
2022-12-25T23:10:36.175Z,19.00
2022-12-25T23:13:02.581Z,18.95
2022-12-25T23:15:28.946Z,18.89
2022-12-25T23:17:55.329Z,18.85
2022-12-25T23:20:21.609Z,18.80
2022-12-25T23:22:47.865Z,18.75
2022-12-25T23:25:14.103Z,18.70
2022-12-25T23:27:40.328Z,18.67
2022-12-25T23:30:06.862Z,18.62
2022-12-25T23:32:33.132Z,18.57
2022-12-25T23:34:59.489Z,18.54
2022-12-25T23:37:26.602Z,18.50
2022-12-25T23:39:53.448Z,18.47
2022-12-25T23:42:19.670Z,18.43
2022-12-25T23:44:45.863Z,18.39
2022-12-25T23:47:12.178Z,18.37
2022-12-25T23:49:38.435Z,18.33
2022-12-25T23:52:04.693Z,18.31
2022-12-25T23:54:31.112Z,18.28
2022-12-25T23:56:57.396Z,18.26
2022-12-25T23:59:23.682Z,18.21
